sensor_id;sensor_type;location;lat;lon;timestamp;pressure;altitude;pressure_sealevel;temperature;humidity
69027;BME280;56080;47.594;19.116;2023-02-14T00:00:14;101973;;;2.73;85.38
69027;BME280;56080;47.594;19.116;2023-02-14T00:10:14;101975;;;1.49;81.97
69027;BME280;56080;47.594;19.116;2023-02-14T00:20:14;101972;;;1.11;82.26
69027;BME280;56080;47.594;19.116;2023-02-14T00:30:15;101961;;;0.77;82.75
69027;BME280;56080;47.594;19.116;2023-02-14T00:40:15;101980;;;0.54;83.87
69027;BME280;56080;47.594;19.116;2023-02-14T00:50:15;101978;;;0.51;82.93
69027;BME280;56080;47.594;19.116;2023-02-14T01:00:15;101979;;;0.56;83.61
69027;BME280;56080;47.594;19.116;2023-02-14T01:10:15;101971;;;0.01;85.24
69027;BME280;56080;47.594;19.116;2023-02-14T01:20:15;101957;;;0.10;84.46
69027;BME280;56080;47.594;19.116;2023-02-14T01:30:16;101948;;;-0.25;85.97
69027;BME280;56080;47.594;19.116;2023-02-14T01:40:16;101940;;;0.03;85.60
69027;BME280;56080;47.594;19.116;2023-02-14T01:50:17;101958;;;-0.18;87.21
69027;BME280;56080;47.594;19.116;2023-02-14T02:00:25;101944;;;-0.21;84.99
69027;BME280;56080;47.594;19.116;2023-02-14T02:10:16;101931;;;-0.22;84.57
69027;BME280;56080;47.594;19.116;2023-02-14T02:50:30;101910;;;-0.69;87.01
69027;BME280;56080;47.594;19.116;2023-02-14T03:00:15;101911;;;-0.72;86.39
69027;BME280;56080;47.594;19.116;2023-02-14T03:10:20;101904;;;-0.87;86.36
69027;BME280;56080;47.594;19.116;2023-02-14T03:20:16;101912;;;-0.88;85.50
69027;BME280;56080;47.594;19.116;2023-02-14T03:40:18;101899;;;-0.73;86.88
69027;BME280;56080;47.594;19.116;2023-02-14T03:50:17;101905;;;-0.69;86.57
69027;BME280;56080;47.594;19.116;2023-02-14T04:00:17;101909;;;-1.00;86.33
69027;BME280;56080;47.594;19.116;2023-02-14T04:10:15;101904;;;-0.78;85.49
69027;BME280;56080;47.594;19.116;2023-02-14T04:20:16;101909;;;-1.40;89.29
69027;BME280;56080;47.594;19.116;2023-02-14T04:30:17;101909;;;-1.30;89.68
69027;BME280;56080;47.594;19.116;2023-02-14T04:40:16;101914;;;-1.02;87.23
69027;BME280;56080;47.594;19.116;2023-02-14T04:50:15;101909;;;-1.16;86.37
69027;BME280;56080;47.594;19.116;2023-02-14T05:00:15;101901;;;-1.36;87.45
69027;BME280;56080;47.594;19.116;2023-02-14T05:10:16;101907;;;-1.47;86.65
69027;BME280;56080;47.594;19.116;2023-02-14T05:20:15;101908;;;-1.32;86.87
69027;BME280;56080;47.594;19.116;2023-02-14T05:30:15;101904;;;-1.37;85.84
69027;BME280;56080;47.594;19.116;2023-02-14T05:40:15;101906;;;-1.51;85.90
69027;BME280;56080;47.594;19.116;2023-02-14T05:50:15;101913;;;-1.25;86.92
69027;BME280;56080;47.594;19.116;2023-02-14T06:00:15;101917;;;-1.47;86.84
69027;BME280;56080;47.594;19.116;2023-02-14T06:30:15;101960;;;-1.43;88.96
69027;BME280;56080;47.594;19.116;2023-02-14T06:40:14;101979;;;-0.87;88.01
69027;BME280;56080;47.594;19.116;2023-02-14T06:50:14;101971;;;-0.75;88.26
69027;BME280;56080;47.594;19.116;2023-02-14T07:00:14;101980;;;-0.39;88.61
69027;BME280;56080;47.594;19.116;2023-02-14T07:10:14;101988;;;-0.30;88.38
69027;BME280;56080;47.594;19.116;2023-02-14T07:20:14;101991;;;-0.07;89.10
69027;BME280;56080;47.594;19.116;2023-02-14T07:30:14;101996;;;0.37;88.53
69027;BME280;56080;47.594;19.116;2023-02-14T07:40:15;102003;;;0.93;88.50
69027;BME280;56080;47.594;19.116;2023-02-14T07:50:14;102008;;;1.53;89.72
69027;BME280;56080;47.594;19.116;2023-02-14T08:00:14;102018;;;2.48;88.50
69027;BME280;56080;47.594;19.116;2023-02-14T08:10:14;102014;;;3.78;82.95
69027;BME280;56080;47.594;19.116;2023-02-14T08:20:15;102019;;;5.46;76.00
69027;BME280;56080;47.594;19.116;2023-02-14T08:30:15;102020;;;5.83;71.44
69027;BME280;56080;47.594;19.116;2023-02-14T08:40:16;102025;;;7.08;67.25
69027;BME280;56080;47.594;19.116;2023-02-14T08:50:16;102027;;;7.67;64.38
69027;BME280;56080;47.594;19.116;2023-02-14T09:10:17;102024;;;10.32;55.31
69027;BME280;56080;47.594;19.116;2023-02-14T09:20:23;102018;;;10.53;53.48
69027;BME280;56080;47.594;19.116;2023-02-14T09:30:19;102025;;;9.73;55.62
69027;BME280;56080;47.594;19.116;2023-02-14T09:40:20;102032;;;9.83;55.06
69027;BME280;56080;47.594;19.116;2023-02-14T09:50:24;102039;;;10.21;53.42
69027;BME280;56080;47.594;19.116;2023-02-14T10:10:27;102027;;;10.47;51.60
69027;BME280;56080;47.594;19.116;2023-02-14T10:20:25;102023;;;10.25;52.13
69027;BME280;56080;47.594;19.116;2023-02-14T10:30:25;102021;;;9.94;53.36
69027;BME280;56080;47.594;19.116;2023-02-14T11:00:30;101982;;;8.79;56.44
69027;BME280;56080;47.594;19.116;2023-02-14T11:10:29;101977;;;8.24;57.67
69027;BME280;56080;47.594;19.116;2023-02-14T11:20:29;101978;;;8.54;57.24
69027;BME280;56080;47.594;19.116;2023-02-14T11:30:34;101979;;;8.30;57.74
69027;BME280;56080;47.594;19.116;2023-02-14T11:40:31;101974;;;8.33;57.59
69027;BME280;56080;47.594;19.116;2023-02-14T11:50:31;101974;;;8.25;57.49
69027;BME280;56080;47.594;19.116;2023-02-14T12:00:32;101963;;;8.30;57.24
69027;BME280;56080;47.594;19.116;2023-02-14T12:10:34;101958;;;8.39;57.03
69027;BME280;56080;47.594;19.116;2023-02-14T12:20:37;101954;;;8.20;57.07
69027;BME280;56080;47.594;19.116;2023-02-14T12:30:34;101941;;;8.34;56.78
69027;BME280;56080;47.594;19.116;2023-02-14T13:00:43;101910;;;8.71;54.49
69027;BME280;56080;47.594;19.116;2023-02-14T13:20:41;101903;;;8.74;54.70
69027;BME280;56080;47.594;19.116;2023-02-14T13:30:40;101903;;;8.99;54.49
69027;BME280;56080;47.594;19.116;2023-02-14T13:40:39;101903;;;9.11;54.50
69027;BME280;56080;47.594;19.116;2023-02-14T13:50:48;101892;;;8.96;54.21
69027;BME280;56080;47.594;19.116;2023-02-14T14:00:42;101889;;;9.10;54.72
69027;BME280;56080;47.594;19.116;2023-02-14T14:10:43;101898;;;9.06;55.19
69027;BME280;56080;47.594;19.116;2023-02-14T14:20:45;101901;;;8.92;55.47
69027;BME280;56080;47.594;19.116;2023-02-14T14:30:45;101900;;;8.96;55.82
69027;BME280;56080;47.594;19.116;2023-02-14T14:40:44;101886;;;8.84;56.11
69027;BME280;56080;47.594;19.116;2023-02-14T14:50:44;101881;;;8.91;56.16
69027;BME280;56080;47.594;19.116;2023-02-14T15:00:50;101877;;;8.98;56.03
69027;BME280;56080;47.594;19.116;2023-02-14T15:10:47;101882;;;9.07;55.71
69027;BME280;56080;47.594;19.116;2023-02-14T15:20:48;101890;;;9.09;55.83
69027;BME280;56080;47.594;19.116;2023-02-14T15:30:47;101886;;;8.84;56.38
69027;BME280;56080;47.594;19.116;2023-02-14T15:40:47;101885;;;8.62;57.11
69027;BME280;56080;47.594;19.116;2023-02-14T15:50:49;101889;;;8.34;58.19
69027;BME280;56080;47.594;19.116;2023-02-14T16:00:53;101889;;;8.32;58.19
69027;BME280;56080;47.594;19.116;2023-02-14T16:20:50;101914;;;7.88;59.06
69027;BME280;56080;47.594;19.116;2023-02-14T16:30:54;101919;;;7.65;59.20
69027;BME280;56080;47.594;19.116;2023-02-14T16:40:52;101915;;;7.37;59.75
69027;BME280;56080;47.594;19.116;2023-02-14T16:50:52;101928;;;7.01;60.86
69027;BME280;56080;47.594;19.116;2023-02-14T17:00:57;101929;;;6.97;61.15
69027;BME280;56080;47.594;19.116;2023-02-14T17:10:54;101941;;;6.84;61.61
69027;BME280;56080;47.594;19.116;2023-02-14T17:20:54;101945;;;6.85;61.57
69027;BME280;56080;47.594;19.116;2023-02-14T17:30:55;101943;;;6.50;62.39
69027;BME280;56080;47.594;19.116;2023-02-14T17:40:55;101940;;;5.96;64.52
69027;BME280;56080;47.594;19.116;2023-02-14T17:50:55;101945;;;5.94;64.42
69027;BME280;56080;47.594;19.116;2023-02-14T18:01:00;101929;;;5.75;65.04
69027;BME280;56080;47.594;19.116;2023-02-14T18:10:56;101941;;;5.51;65.58
69027;BME280;56080;47.594;19.116;2023-02-14T18:20:59;101939;;;5.27;65.40
69027;BME280;56080;47.594;19.116;2023-02-14T18:31:03;101937;;;4.28;69.15
69027;BME280;56080;47.594;19.116;2023-02-14T18:41:02;101933;;;4.55;67.21
69027;BME280;56080;47.594;19.116;2023-02-14T18:51:04;101926;;;4.32;68.94
69027;BME280;56080;47.594;19.116;2023-02-14T19:01:07;101941;;;4.31;68.67
69027;BME280;56080;47.594;19.116;2023-02-14T19:11:01;101932;;;3.79;69.05
69027;BME280;56080;47.594;19.116;2023-02-14T19:21:10;101932;;;3.77;70.39
69027;BME280;56080;47.594;19.116;2023-02-14T19:31:03;101930;;;3.30;70.16
69027;BME280;56080;47.594;19.116;2023-02-14T19:41:00;101937;;;2.97;72.72
69027;BME280;56080;47.594;19.116;2023-02-14T19:51:01;101941;;;2.81;72.61
69027;BME280;56080;47.594;19.116;2023-02-14T20:01:08;101939;;;2.25;75.30
69027;BME280;56080;47.594;19.116;2023-02-14T20:11:01;101943;;;2.54;74.29
69027;BME280;56080;47.594;19.116;2023-02-14T20:21:02;101939;;;2.23;75.41
69027;BME280;56080;47.594;19.116;2023-02-14T20:31:06;101940;;;2.26;74.08
69027;BME280;56080;47.594;19.116;2023-02-14T20:41:05;101945;;;2.12;74.35
69027;BME280;56080;47.594;19.116;2023-02-14T20:51:10;101943;;;1.36;77.75
69027;BME280;56080;47.594;19.116;2023-02-14T21:01:06;101944;;;1.72;76.43
69027;BME280;56080;47.594;19.116;2023-02-14T21:11:03;101936;;;1.28;78.08
69027;BME280;56080;47.594;19.116;2023-02-14T21:21:03;101930;;;1.40;77.44
69027;BME280;56080;47.594;19.116;2023-02-14T21:31:05;101936;;;1.07;78.86
69027;BME280;56080;47.594;19.116;2023-02-14T21:41:05;101940;;;1.13;78.83
69027;BME280;56080;47.594;19.116;2023-02-14T21:51:07;101945;;;0.81;79.25
69027;BME280;56080;47.594;19.116;2023-02-14T22:01:03;101953;;;1.08;78.70
69027;BME280;56080;47.594;19.116;2023-02-14T22:11:04;101951;;;0.87;80.13
69027;BME280;56080;47.594;19.116;2023-02-14T22:21:05;101956;;;0.91;78.44
69027;BME280;56080;47.594;19.116;2023-02-14T22:31:03;101963;;;0.67;78.89
69027;BME280;56080;47.594;19.116;2023-02-14T22:41:05;101962;;;0.68;79.00
69027;BME280;56080;47.594;19.116;2023-02-14T22:51:05;101969;;;0.40;79.07
69027;BME280;56080;47.594;19.116;2023-02-14T23:01:03;101958;;;0.40;78.29
69027;BME280;56080;47.594;19.116;2023-02-14T23:11:05;101953;;;0.55;79.46
69027;BME280;56080;47.594;19.116;2023-02-14T23:21:13;101952;;;0.47;78.54
69027;BME280;56080;47.594;19.116;2023-02-14T23:31:03;101946;;;0.08;80.57
69027;BME280;56080;47.594;19.116;2023-02-14T23:41:13;101948;;;0.26;78.49
69027;BME280;56080;47.594;19.116;2023-02-14T23:51:04;101953;;;-0.22;81.16
